sensor_id;sensor_type;location;lat;lon;timestamp;pressure;altitude;pressure_sealevel;temperature;humidity
58367;BME280;57745;42.524;12.052;2023-08-01T00:01:55;96010.56;;;29.63;41.34
58367;BME280;57745;42.524;12.052;2023-08-01T00:04:20;96010.97;;;29.52;41.50
58367;BME280;57745;42.524;12.052;2023-08-01T00:06:46;96008.13;;;29.59;41.54
58367;BME280;57745;42.524;12.052;2023-08-01T00:09:11;96008.69;;;29.58;41.43
58367;BME280;57745;42.524;12.052;2023-08-01T00:11:36;96005.75;;;29.48;41.59
58367;BME280;57745;42.524;12.052;2023-08-01T00:14:02;95997.16;;;29.61;41.06
58367;BME280;57745;42.524;12.052;2023-08-01T00:16:27;96000.13;;;29.56;41.46
58367;BME280;57745;42.524;12.052;2023-08-01T00:18:53;96001.84;;;29.51;41.29
58367;BME280;57745;42.524;12.052;2023-08-01T00:21:18;95991.94;;;29.58;41.39
58367;BME280;57745;42.524;12.052;2023-08-01T00:23:44;95993.88;;;29.40;41.79
58367;BME280;57745;42.524;12.052;2023-08-01T00:26:09;95986.56;;;29.52;41.50
58367;BME280;57745;42.524;12.052;2023-08-01T00:28:35;95980.78;;;29.50;41.56
58367;BME280;57745;42.524;12.052;2023-08-01T00:31:05;95980.75;;;29.58;41.16
58367;BME280;57745;42.524;12.052;2023-08-01T00:33:30;95981.22;;;29.39;42.23
58367;BME280;57745;42.524;12.052;2023-08-01T00:35:56;95980.06;;;29.50;41.67
58367;BME280;57745;42.524;12.052;2023-08-01T00:38:21;95975.91;;;29.58;41.40
58367;BME280;57745;42.524;12.052;2023-08-01T00:40:47;95976.88;;;29.46;41.62
58367;BME280;57745;42.524;12.052;2023-08-01T00:43:12;95976.00;;;29.28;42.12
58367;BME280;57745;42.524;12.052;2023-08-01T00:45:38;95973.16;;;29.43;42.08
58367;BME280;57745;42.524;12.052;2023-08-01T00:48:03;95968.50;;;29.46;42.37
58367;BME280;57745;42.524;12.052;2023-08-01T00:50:29;95971.91;;;29.29;42.48
58367;BME280;57745;42.524;12.052;2023-08-01T00:52:55;95967.44;;;29.26;42.37
58367;BME280;57745;42.524;12.052;2023-08-01T00:55:21;95963.69;;;29.31;42.30
58367;BME280;57745;42.524;12.052;2023-08-01T00:57:48;95968.16;;;29.34;42.32
58367;BME280;57745;42.524;12.052;2023-08-01T01:00:13;95954.97;;;29.19;42.80
58367;BME280;57745;42.524;12.052;2023-08-01T01:02:39;95956.25;;;29.26;42.58
58367;BME280;57745;42.524;12.052;2023-08-01T01:05:05;95954.03;;;29.40;42.36
58367;BME280;57745;42.524;12.052;2023-08-01T01:07:31;95954.78;;;29.25;42.69
58367;BME280;57745;42.524;12.052;2023-08-01T01:09:58;95949.34;;;29.42;42.79
58367;BME280;57745;42.524;12.052;2023-08-01T01:12:24;95951.59;;;29.28;42.83
58367;BME280;57745;42.524;12.052;2023-08-01T01:14:49;95940.63;;;29.23;43.22
58367;BME280;57745;42.524;12.052;2023-08-01T01:17:15;95940.59;;;29.30;42.91
58367;BME280;57745;42.524;12.052;2023-08-01T01:19:40;95938.78;;;29.18;43.65
58367;BME280;57745;42.524;12.052;2023-08-01T01:22:07;95932.63;;;29.27;43.36
58367;BME280;57745;42.524;12.052;2023-08-01T01:24:35;95927.38;;;29.31;43.42
58367;BME280;57745;42.524;12.052;2023-08-01T01:27:01;95936.38;;;29.14;43.74
58367;BME280;57745;42.524;12.052;2023-08-01T01:29:29;95926.84;;;29.25;43.23
58367;BME280;57745;42.524;12.052;2023-08-01T01:31:56;95927.56;;;29.33;43.51
58367;BME280;57745;42.524;12.052;2023-08-01T01:34:22;95919.53;;;29.37;43.36
58367;BME280;57745;42.524;12.052;2023-08-01T01:36:48;95927.97;;;29.22;43.85
58367;BME280;57745;42.524;12.052;2023-08-01T01:39:14;95917.78;;;29.09;44.46
58367;BME280;57745;42.524;12.052;2023-08-01T01:41:39;95914.00;;;29.22;44.02
58367;BME280;57745;42.524;12.052;2023-08-01T01:44:04;95912.75;;;29.15;44.46
58367;BME280;57745;42.524;12.052;2023-08-01T01:46:30;95913.13;;;29.12;44.22
58367;BME280;57745;42.524;12.052;2023-08-01T01:48:55;95912.75;;;29.15;44.51
58367;BME280;57745;42.524;12.052;2023-08-01T01:51:24;95909.16;;;29.22;44.21
58367;BME280;57745;42.524;12.052;2023-08-01T01:53:49;95912.94;;;29.10;44.16
58367;BME280;57745;42.524;12.052;2023-08-01T01:56:15;95909.72;;;29.21;44.09
58367;BME280;57745;42.524;12.052;2023-08-01T01:58:40;95905.81;;;29.24;44.09
58367;BME280;57745;42.524;12.052;2023-08-01T02:01:06;95905.53;;;29.05;44.58
58367;BME280;57745;42.524;12.052;2023-08-01T02:03:31;95908.09;;;29.10;44.55
58367;BME280;57745;42.524;12.052;2023-08-01T02:05:57;95903.47;;;28.98;45.00
58367;BME280;57745;42.524;12.052;2023-08-01T02:08:22;95905.69;;;29.07;44.99
58367;BME280;57745;42.524;12.052;2023-08-01T02:10:48;95904.94;;;29.06;44.96
58367;BME280;57745;42.524;12.052;2023-08-01T02:13:14;95894.09;;;29.18;44.64
58367;BME280;57745;42.524;12.052;2023-08-01T02:15:39;95890.84;;;28.89;45.58
58367;BME280;57745;42.524;12.052;2023-08-01T02:18:05;95892.31;;;28.98;45.43
58367;BME280;57745;42.524;12.052;2023-08-01T02:20:30;95891.41;;;28.87;46.01
58367;BME280;57745;42.524;12.052;2023-08-01T02:22:56;95885.47;;;28.91;45.98
58367;BME280;57745;42.524;12.052;2023-08-01T02:25:22;95886.31;;;29.09;45.52
58367;BME280;57745;42.524;12.052;2023-08-01T02:27:47;95886.41;;;28.78;45.95
58367;BME280;57745;42.524;12.052;2023-08-01T02:30:13;95881.00;;;28.88;45.84
58367;BME280;57745;42.524;12.052;2023-08-01T02:32:38;95877.59;;;28.97;45.95
58367;BME280;57745;42.524;12.052;2023-08-01T02:35:04;95876.63;;;29.10;45.48
58367;BME280;57745;42.524;12.052;2023-08-01T02:37:29;95873.34;;;28.96;45.50
58367;BME280;57745;42.524;12.052;2023-08-01T02:39:55;95875.59;;;28.82;46.10
58367;BME280;57745;42.524;12.052;2023-08-01T02:42:20;95873.47;;;29.06;45.94
58367;BME280;57745;42.524;12.052;2023-08-01T02:44:46;95877.75;;;29.07;45.92
58367;BME280;57745;42.524;12.052;2023-08-01T02:47:11;95879.28;;;29.00;45.81
58367;BME280;57745;42.524;12.052;2023-08-01T02:49:37;95877.81;;;28.91;45.99
58367;BME280;57745;42.524;12.052;2023-08-01T02:52:02;95869.97;;;29.05;45.97
58367;BME280;57745;42.524;12.052;2023-08-01T02:54:28;95862.38;;;28.90;46.54
58367;BME280;57745;42.524;12.052;2023-08-01T02:56:53;95871.31;;;28.89;46.28
58367;BME280;57745;42.524;12.052;2023-08-01T02:59:19;95867.06;;;28.80;47.00
58367;BME280;57745;42.524;12.052;2023-08-01T03:01:44;95866.81;;;29.01;46.21
58367;BME280;57745;42.524;12.052;2023-08-01T03:04:09;95873.09;;;29.09;45.88
58367;BME280;57745;42.524;12.052;2023-08-01T03:06:37;95874.41;;;29.08;45.86
58367;BME280;57745;42.524;12.052;2023-08-01T03:09:03;95872.25;;;28.91;46.43
58367;BME280;57745;42.524;12.052;2023-08-01T03:11:35;95871.47;;;28.99;46.09
58367;BME280;57745;42.524;12.052;2023-08-01T03:14:02;95874.84;;;28.82;46.59
58367;BME280;57745;42.524;12.052;2023-08-01T03:16:30;95870.38;;;28.86;46.80
58367;BME280;57745;42.524;12.052;2023-08-01T03:18:55;95873.94;;;28.79;46.82
58367;BME280;57745;42.524;12.052;2023-08-01T03:21:21;95875.59;;;28.90;46.52
58367;BME280;57745;42.524;12.052;2023-08-01T03:23:46;95871.47;;;28.99;46.26
58367;BME280;57745;42.524;12.052;2023-08-01T03:26:12;95873.00;;;28.77;46.49
58367;BME280;57745;42.524;12.052;2023-08-01T03:28:37;95875.25;;;28.78;47.41
58367;BME280;57745;42.524;12.052;2023-08-01T03:31:03;95884.72;;;28.75;47.31
58367;BME280;57745;42.524;12.052;2023-08-01T03:33:28;95875.78;;;28.84;46.67
58367;BME280;57745;42.524;12.052;2023-08-01T03:35:54;95873.88;;;28.94;46.78
58367;BME280;57745;42.524;12.052;2023-08-01T03:38:20;95873.69;;;29.00;46.92
58367;BME280;57745;42.524;12.052;2023-08-01T03:40:45;95879.69;;;28.81;47.10
58367;BME280;57745;42.524;12.052;2023-08-01T03:43:11;95879.47;;;28.94;46.42
58367;BME280;57745;42.524;12.052;2023-08-01T03:45:37;95887.13;;;28.86;46.90
58367;BME280;57745;42.524;12.052;2023-08-01T03:48:15;95884.72;;;28.90;46.61
58367;BME280;57745;42.524;12.052;2023-08-01T03:50:40;95883.22;;;28.74;46.83
58367;BME280;57745;42.524;12.052;2023-08-01T03:53:07;95882.63;;;28.99;46.35
58367;BME280;57745;42.524;12.052;2023-08-01T03:55:32;95888.41;;;29.01;46.71
58367;BME280;57745;42.524;12.052;2023-08-01T03:57:58;95891.94;;;28.93;46.52
58367;BME280;57745;42.524;12.052;2023-08-01T04:00:24;95885.47;;;28.83;47.17
58367;BME280;57745;42.524;12.052;2023-08-01T04:02:49;95886.53;;;28.95;46.72
58367;BME280;57745;42.524;12.052;2023-08-01T04:05:15;95881.75;;;28.88;46.98
58367;BME280;57745;42.524;12.052;2023-08-01T04:07:41;95884.91;;;28.77;47.16
58367;BME280;57745;42.524;12.052;2023-08-01T04:10:07;95881.75;;;28.81;46.92
58367;BME280;57745;42.524;12.052;2023-08-01T04:12:33;95888.81;;;28.89;46.91
58367;BME280;57745;42.524;12.052;2023-08-01T04:14:59;95888.06;;;28.89;46.87
58367;BME280;57745;42.524;12.052;2023-08-01T04:17:25;95882.28;;;28.87;46.83
58367;BME280;57745;42.524;12.052;2023-08-01T04:19:50;95893.66;;;28.74;47.47
58367;BME280;57745;42.524;12.052;2023-08-01T04:22:16;95887.72;;;28.62;48.25
58367;BME280;57745;42.524;12.052;2023-08-01T04:24:41;95885.81;;;28.87;47.51
58367;BME280;57745;42.524;12.052;2023-08-01T04:27:07;95885.78;;;28.95;47.45
58367;BME280;57745;42.524;12.052;2023-08-01T04:29:32;95889.75;;;28.77;47.83
58367;BME280;57745;42.524;12.052;2023-08-01T04:31:58;95900.38;;;28.78;47.50
58367;BME280;57745;42.524;12.052;2023-08-01T04:34:23;95902.22;;;28.83;47.71
58367;BME280;57745;42.524;12.052;2023-08-01T04:36:49;95894.97;;;28.65;47.80
58367;BME280;57745;42.524;12.052;2023-08-01T04:39:14;95893.13;;;28.52;48.43
58367;BME280;57745;42.524;12.052;2023-08-01T04:41:40;95892.00;;;28.48;48.61
58367;BME280;57745;42.524;12.052;2023-08-01T04:44:05;95894.41;;;28.59;48.60
58367;BME280;57745;42.524;12.052;2023-08-01T04:46:31;95893.84;;;28.68;48.31
58367;BME280;57745;42.524;12.052;2023-08-01T04:48:57;95898.69;;;28.60;48.50
58367;BME280;57745;42.524;12.052;2023-08-01T04:51:22;95893.47;;;28.64;48.59
58367;BME280;57745;42.524;12.052;2023-08-01T04:53:48;95912.44;;;28.58;48.53
58367;BME280;57745;42.524;12.052;2023-08-01T04:56:13;95896.81;;;28.70;47.93
58367;BME280;57745;42.524;12.052;2023-08-01T04:58:39;95911.31;;;28.69;48.02
58367;BME280;57745;42.524;12.052;2023-08-01T05:01:04;95903.31;;;28.73;47.99
58367;BME280;57745;42.524;12.052;2023-08-01T05:03:30;95913.22;;;28.51;48.57
58367;BME280;57745;42.524;12.052;2023-08-01T05:05:55;95906.34;;;28.52;48.71
58367;BME280;57745;42.524;12.052;2023-08-01T05:08:21;95906.72;;;28.41;48.82
58367;BME280;57745;42.524;12.052;2023-08-01T05:10:46;95902.00;;;28.74;48.34
58367;BME280;57745;42.524;12.052;2023-08-01T05:13:11;95906.66;;;28.71;48.49
58367;BME280;57745;42.524;12.052;2023-08-01T05:15:37;95913.72;;;28.72;48.39
58367;BME280;57745;42.524;12.052;2023-08-01T05:18:02;95905.38;;;28.57;49.02
58367;BME280;57745;42.524;12.052;2023-08-01T05:20:28;95907.06;;;28.52;49.28
58367;BME280;57745;42.524;12.052;2023-08-01T05:22:58;95908.16;;;28.72;48.98
58367;BME280;57745;42.524;12.052;2023-08-01T05:25:24;95910.59;;;28.68;48.99
58367;BME280;57745;42.524;12.052;2023-08-01T05:27:50;95912.63;;;28.83;48.85
58367;BME280;57745;42.524;12.052;2023-08-01T05:30:15;95909.09;;;28.67;49.38
58367;BME280;57745;42.524;12.052;2023-08-01T05:32:41;95918.19;;;28.83;48.73
58367;BME280;57745;42.524;12.052;2023-08-01T05:35:08;95913.72;;;28.72;49.40
58367;BME280;57745;42.524;12.052;2023-08-01T05:37:34;95913.19;;;28.89;48.85
58367;BME280;57745;42.524;12.052;2023-08-01T05:39:59;95912.44;;;28.81;49.27
58367;BME280;57745;42.524;12.052;2023-08-01T05:42:25;95918.19;;;28.98;48.79
58367;BME280;57745;42.524;12.052;2023-08-01T05:44:50;95925.44;;;28.93;49.10
58367;BME280;57745;42.524;12.052;2023-08-01T05:47:16;95922.28;;;28.74;49.73
58367;BME280;57745;42.524;12.052;2023-08-01T05:49:41;95925.44;;;28.71;49.82
58367;BME280;57745;42.524;12.052;2023-08-01T05:52:07;95926.97;;;28.79;49.78
58367;BME280;57745;42.524;12.052;2023-08-01T05:54:32;95927.34;;;28.68;50.10
58367;BME280;57745;42.524;12.052;2023-08-01T05:56:58;95926.22;;;28.86;49.58
58367;BME280;57745;42.524;12.052;2023-08-01T05:59:24;95925.28;;;28.91;49.28
58367;BME280;57745;42.524;12.052;2023-08-01T06:01:49;95921.19;;;28.92;49.16
58367;BME280;57745;42.524;12.052;2023-08-01T06:04:15;95922.09;;;28.72;49.37
58367;BME280;57745;42.524;12.052;2023-08-01T06:06:40;95922.09;;;28.72;48.89
58367;BME280;57745;42.524;12.052;2023-08-01T06:09:06;95923.78;;;28.90;48.17
58367;BME280;57745;42.524;12.052;2023-08-01T06:11:31;95926.41;;;28.66;49.46
58367;BME280;57745;42.524;12.052;2023-08-01T06:13:58;95925.50;;;28.55;50.18
58367;BME280;57745;42.524;12.052;2023-08-01T06:16:24;95921.03;;;28.52;50.32
58367;BME280;57745;42.524;12.052;2023-08-01T06:18:49;95924.16;;;28.72;49.66
58367;BME280;57745;42.524;12.052;2023-08-01T06:21:15;95922.31;;;28.89;48.97
58367;BME280;57745;42.524;12.052;2023-08-01T06:23:40;95928.28;;;28.78;49.46
58367;BME280;57745;42.524;12.052;2023-08-01T06:26:06;95928.81;;;28.77;49.23
58367;BME280;57745;42.524;12.052;2023-08-01T06:28:31;95922.47;;;28.76;48.69
58367;BME280;57745;42.524;12.052;2023-08-01T06:30:57;95924.34;;;28.66;48.98
58367;BME280;57745;42.524;12.052;2023-08-01T06:33:22;95922.09;;;28.72;48.67
58367;BME280;57745;42.524;12.052;2023-08-01T06:35:48;95925.09;;;28.89;48.51
58367;BME280;57745;42.524;12.052;2023-08-01T06:38:14;95921.56;;;28.81;48.73
58367;BME280;57745;42.524;12.052;2023-08-01T06:40:40;95919.13;;;28.85;48.71
58367;BME280;57745;42.524;12.052;2023-08-01T06:43:05;95918.22;;;28.90;48.61
58367;BME280;57745;42.524;12.052;2023-08-01T06:45:31;95918.00;;;28.73;49.26
58367;BME280;57745;42.524;12.052;2023-08-01T06:47:56;95910.38;;;28.89;49.15
58367;BME280;57745;42.524;12.052;2023-08-01T06:50:22;95911.88;;;28.82;49.46
58367;BME280;57745;42.524;12.052;2023-08-01T06:52:48;95915.22;;;28.81;49.60
58367;BME280;57745;42.524;12.052;2023-08-01T06:55:14;95915.03;;;28.86;49.78
58367;BME280;57745;42.524;12.052;2023-08-01T06:57:39;95915.22;;;28.88;49.94
58367;BME280;57745;42.524;12.052;2023-08-01T07:00:05;95907.59;;;28.74;50.24
58367;BME280;57745;42.524;12.052;2023-08-01T07:02:31;95912.81;;;28.77;50.53
58367;BME280;57745;42.524;12.052;2023-08-01T07:04:56;95906.69;;;28.79;50.35
58367;BME280;57745;42.524;12.052;2023-08-01T07:07:22;95900.16;;;28.84;50.48
58367;BME280;57745;42.524;12.052;2023-08-01T07:09:47;95897.00;;;28.87;49.26
58367;BME280;57745;42.524;12.052;2023-08-01T07:12:13;95911.53;;;28.78;49.56
58367;BME280;57745;42.524;12.052;2023-08-01T07:14:39;95906.69;;;28.79;48.78
58367;BME280;57745;42.524;12.052;2023-08-01T07:17:05;95899.06;;;28.79;48.56
58367;BME280;57745;42.524;12.052;2023-08-01T07:19:30;95898.66;;;28.83;48.61
58367;BME280;57745;42.524;12.052;2023-08-01T07:21:55;95894.72;;;28.93;47.90
58367;BME280;57745;42.524;12.052;2023-08-01T07:24:21;95891.41;;;28.87;47.92
58367;BME280;57745;42.524;12.052;2023-08-01T07:26:47;95893.44;;;28.94;47.94
58367;BME280;57745;42.524;12.052;2023-08-01T07:29:13;95891.19;;;29.01;47.79
58367;BME280;57745;42.524;12.052;2023-08-01T07:31:41;95893.63;;;28.97;48.00
58367;BME280;57745;42.524;12.052;2023-08-01T07:34:07;95898.25;;;28.94;47.93
58367;BME280;57745;42.524;12.052;2023-08-01T07:36:32;95896.19;;;29.10;47.24
58367;BME280;57745;42.524;12.052;2023-08-01T07:38:58;95890.22;;;29.06;47.65
58367;BME280;57745;42.524;12.052;2023-08-01T07:41:23;95893.44;;;29.02;47.69
58367;BME280;57745;42.524;12.052;2023-08-01T07:43:49;95900.81;;;29.15;47.03
58367;BME280;57745;42.524;12.052;2023-08-01T07:46:14;95886.63;;;29.28;46.39
58367;BME280;57745;42.524;12.052;2023-08-01T07:48:40;95881.44;;;29.24;47.22
58367;BME280;57745;42.524;12.052;2023-08-01T07:51:05;95887.19;;;29.26;47.19
58367;BME280;57745;42.524;12.052;2023-08-01T07:53:33;95880.13;;;29.25;46.97
58367;BME280;57745;42.524;12.052;2023-08-01T07:55:59;95884.31;;;29.49;46.11
58367;BME280;57745;42.524;12.052;2023-08-01T07:58:27;95890.34;;;29.38;46.33
58367;BME280;57745;42.524;12.052;2023-08-01T08:00:52;95891.34;;;29.58;45.68
58367;BME280;57745;42.524;12.052;2023-08-01T08:03:18;95890.50;;;29.40;46.47
58367;BME280;57745;42.524;12.052;2023-08-01T08:05:44;95886.94;;;29.47;46.29
58367;BME280;57745;42.524;12.052;2023-08-01T08:08:10;95898.72;;;29.71;45.46
58367;BME280;57745;42.524;12.052;2023-08-01T08:10:35;95902.22;;;29.46;46.10
58367;BME280;57745;42.524;12.052;2023-08-01T08:13:01;95907.72;;;29.61;45.62
58367;BME280;57745;42.524;12.052;2023-08-01T08:15:26;95903.81;;;29.57;45.69
58367;BME280;57745;42.524;12.052;2023-08-01T08:17:52;95907.22;;;29.80;45.15
58367;BME280;57745;42.524;12.052;2023-08-01T08:20:18;95909.47;;;29.82;44.97
58367;BME280;57745;42.524;12.052;2023-08-01T08:22:43;95908.09;;;29.65;45.21
58367;BME280;57745;42.524;12.052;2023-08-01T08:25:08;95907.28;;;29.73;44.82
58367;BME280;57745;42.524;12.052;2023-08-01T08:27:34;95910.34;;;29.59;44.89
58367;BME280;57745;42.524;12.052;2023-08-01T08:29:59;95907.09;;;29.78;44.43
58367;BME280;57745;42.524;12.052;2023-08-01T08:32:25;95903.75;;;29.72;44.08
58367;BME280;57745;42.524;12.052;2023-08-01T08:34:53;95910.25;;;29.75;44.03
58367;BME280;57745;42.524;12.052;2023-08-01T08:37:18;95911.69;;;29.83;43.68
58367;BME280;57745;42.524;12.052;2023-08-01T08:39:44;95909.13;;;29.78;43.72
58367;BME280;57745;42.524;12.052;2023-08-01T08:42:10;95912.44;;;29.84;43.78
58367;BME280;57745;42.524;12.052;2023-08-01T08:44:43;95931.97;;;29.91;43.66
58367;BME280;57745;42.524;12.052;2023-08-01T08:47:10;95915.97;;;29.84;44.03
58367;BME280;57745;42.524;12.052;2023-08-01T08:49:37;95915.91;;;29.99;43.52
58367;BME280;57745;42.524;12.052;2023-08-01T08:52:03;95912.06;;;29.87;43.24
58367;BME280;57745;42.524;12.052;2023-08-01T08:54:30;95903.75;;;30.05;43.52
58367;BME280;57745;42.524;12.052;2023-08-01T08:56:56;95901.38;;;29.93;43.69
58367;BME280;57745;42.524;12.052;2023-08-01T08:59:25;95884.91;;;30.05;44.00
58367;BME280;57745;42.524;12.052;2023-08-01T09:01:52;95872.66;;;30.00;44.19
58367;BME280;57745;42.524;12.052;2023-08-01T09:04:17;95866.84;;;30.06;43.98
58367;BME280;57745;42.524;12.052;2023-08-01T09:06:49;95874.00;;;29.92;44.40
58367;BME280;57745;42.524;12.052;2023-08-01T09:09:14;95879.75;;;29.94;44.12
58367;BME280;57745;42.524;12.052;2023-08-01T09:11:47;95870.25;;;29.97;43.67
58367;BME280;57745;42.524;12.052;2023-08-01T09:14:13;95870.06;;;30.03;43.24
58367;BME280;57745;42.524;12.052;2023-08-01T09:16:40;95858.88;;;29.95;43.36
58367;BME280;57745;42.524;12.052;2023-08-01T09:19:06;95862.72;;;30.07;43.16
58367;BME280;57745;42.524;12.052;2023-08-01T09:21:35;95864.28;;;30.25;43.04
58367;BME280;57745;42.524;12.052;2023-08-01T09:26:35;95848.34;;;30.11;43.35
58367;BME280;57745;42.524;12.052;2023-08-01T09:29:01;95843.72;;;30.06;43.66
58367;BME280;57745;42.524;12.052;2023-08-01T09:31:31;95843.97;;;30.00;43.52
58367;BME280;57745;42.524;12.052;2023-08-01T09:33:56;95844.06;;;30.10;42.89
58367;BME280;57745;42.524;12.052;2023-08-01T09:36:23;95834.59;;;30.05;42.80
58367;BME280;57745;42.524;12.052;2023-08-01T09:38:50;95837.06;;;30.01;42.92
58367;BME280;57745;42.524;12.052;2023-08-01T09:41:18;95828.38;;;30.14;43.01
58367;BME280;57745;42.524;12.052;2023-08-01T09:43:45;95832.66;;;30.15;43.21
58367;BME280;57745;42.524;12.052;2023-08-01T09:46:12;95835.56;;;30.00;42.98
58367;BME280;57745;42.524;12.052;2023-08-01T09:48:37;95829.13;;;30.15;43.24
58367;BME280;57745;42.524;12.052;2023-08-01T09:51:10;95839.56;;;30.14;42.97
58367;BME280;57745;42.524;12.052;2023-08-01T09:53:54;95845.34;;;30.16;42.26
58367;BME280;57745;42.524;12.052;2023-08-01T09:56:25;95838.09;;;30.13;42.71
58367;BME280;57745;42.524;12.052;2023-08-01T09:58:53;95836.44;;;30.10;42.68
58367;BME280;57745;42.524;12.052;2023-08-01T10:01:20;95842.81;;;30.28;42.39
58367;BME280;57745;42.524;12.052;2023-08-01T10:03:47;95835.78;;;30.19;41.94
58367;BME280;57745;42.524;12.052;2023-08-01T10:06:18;95838.94;;;30.23;42.17
58367;BME280;57745;42.524;12.052;2023-08-01T10:08:46;95840.69;;;30.36;42.12
58367;BME280;57745;42.524;12.052;2023-08-01T10:11:14;95838.34;;;30.25;41.96
58367;BME280;57745;42.524;12.052;2023-08-01T10:13:42;95833.09;;;30.29;42.20
58367;BME280;57745;42.524;12.052;2023-08-01T10:16:08;95830.34;;;30.21;42.36
58367;BME280;57745;42.524;12.052;2023-08-01T10:18:34;95830.88;;;30.27;42.53
58367;BME280;57745;42.524;12.052;2023-08-01T10:21:03;95817.50;;;30.18;42.20
58367;BME280;57745;42.524;12.052;2023-08-01T10:23:30;95829.31;;;30.34;42.30
58367;BME280;57745;42.524;12.052;2023-08-01T10:25:58;95827.25;;;30.34;42.10
58367;BME280;57745;42.524;12.052;2023-08-01T10:28:36;95811.78;;;30.33;42.15
58367;BME280;57745;42.524;12.052;2023-08-01T10:31:16;95809.97;;;30.28;42.03
58367;BME280;57745;42.524;12.052;2023-08-01T10:33:47;95814.84;;;30.28;41.84
58367;BME280;57745;42.524;12.052;2023-08-01T10:36:16;95809.16;;;30.35;41.71
58367;BME280;57745;42.524;12.052;2023-08-01T10:38:52;95812.13;;;30.38;41.90
58367;BME280;57745;42.524;12.052;2023-08-01T10:41:36;95817.38;;;30.33;41.68
58367;BME280;57745;42.524;12.052;2023-08-01T10:44:09;95816.63;;;30.33;41.41
58367;BME280;57745;42.524;12.052;2023-08-01T10:46:50;95820.84;;;30.42;41.79
58367;BME280;57745;42.524;12.052;2023-08-01T10:49:17;95822.56;;;30.37;41.93
58367;BME280;57745;42.524;12.052;2023-08-01T10:51:44;95812.31;;;30.40;42.03
58367;BME280;57745;42.524;12.052;2023-08-01T10:54:19;95805.41;;;30.41;41.09
58367;BME280;57745;42.524;12.052;2023-08-01T10:56:46;95809.16;;;30.35;41.50
58367;BME280;57745;42.524;12.052;2023-08-01T10:59:13;95807.59;;;30.42;41.28
58367;BME280;57745;42.524;12.052;2023-08-01T11:01:53;95798.72;;;30.36;41.32
58367;BME280;57745;42.524;12.052;2023-08-01T11:04:20;95786.63;;;30.51;40.84
58367;BME280;57745;42.524;12.052;2023-08-01T11:06:48;95797.41;;;30.54;41.13
58367;BME280;57745;42.524;12.052;2023-08-01T11:09:18;95792.78;;;30.49;40.99
58367;BME280;57745;42.524;12.052;2023-08-01T11:11:44;95784.78;;;30.53;41.46
58367;BME280;57745;42.524;12.052;2023-08-01T11:14:11;95785.94;;;30.43;41.38
58367;BME280;57745;42.524;12.052;2023-08-01T11:16:38;95788.25;;;30.36;41.60
58367;BME280;57745;42.524;12.052;2023-08-01T11:19:03;95792.72;;;30.40;41.14
58367;BME280;57745;42.524;12.052;2023-08-01T11:21:29;95782.13;;;30.55;41.06
58367;BME280;57745;42.524;12.052;2023-08-01T11:23:54;95783.75;;;30.41;41.20
58367;BME280;57745;42.524;12.052;2023-08-01T11:26:21;95782.59;;;30.44;41.27
58367;BME280;57745;42.524;12.052;2023-08-01T11:28:47;95784.00;;;30.53;40.86
58367;BME280;57745;42.524;12.052;2023-08-01T11:31:13;95783.50;;;30.47;40.71
58367;BME280;57745;42.524;12.052;2023-08-01T11:33:38;95781.03;;;30.51;40.36
58367;BME280;57745;42.524;12.052;2023-08-01T11:36:05;95773.16;;;30.57;40.11
58367;BME280;57745;42.524;12.052;2023-08-01T11:38:32;95762.47;;;30.63;40.66
58367;BME280;57745;42.524;12.052;2023-08-01T11:41:02;95759.38;;;30.51;40.93
58367;BME280;57745;42.524;12.052;2023-08-01T11:43:46;95749.44;;;30.58;40.39
58367;BME280;57745;42.524;12.052;2023-08-01T11:46:12;95753.38;;;30.55;40.77
58367;BME280;57745;42.524;12.052;2023-08-01T11:48:37;95753.31;;;30.62;40.35
58367;BME280;57745;42.524;12.052;2023-08-01T11:51:03;95767.88;;;30.61;40.50
58367;BME280;57745;42.524;12.052;2023-08-01T11:53:29;95756.84;;;30.63;40.29
58367;BME280;57745;42.524;12.052;2023-08-01T11:55:56;95747.31;;;30.66;40.72
58367;BME280;57745;42.524;12.052;2023-08-01T11:58:32;95745.22;;;30.66;40.72
58367;BME280;57745;42.524;12.052;2023-08-01T12:01:15;95740.88;;;30.73;40.65
58367;BME280;57745;42.524;12.052;2023-08-01T12:03:48;95726.25;;;30.65;41.06
58367;BME280;57745;42.524;12.052;2023-08-01T12:06:14;95726.16;;;30.55;41.19
58367;BME280;57745;42.524;12.052;2023-08-01T12:08:44;95731.84;;;30.65;41.26
58367;BME280;57745;42.524;12.052;2023-08-01T12:11:27;95719.16;;;30.64;41.27
58367;BME280;57745;42.524;12.052;2023-08-01T12:14:06;95721.22;;;30.63;41.49
58367;BME280;57745;42.524;12.052;2023-08-01T12:16:32;95725.50;;;30.64;41.31
58367;BME280;57745;42.524;12.052;2023-08-01T12:18:58;95715.28;;;30.59;40.98
58367;BME280;57745;42.524;12.052;2023-08-01T12:21:23;95720.66;;;30.65;41.42
58367;BME280;57745;42.524;12.052;2023-08-01T12:23:49;95710.75;;;30.64;41.03
58367;BME280;57745;42.524;12.052;2023-08-01T12:26:14;95707.41;;;30.65;41.27
58367;BME280;57745;42.524;12.052;2023-08-01T12:28:40;95702.69;;;30.68;41.22
58367;BME280;57745;42.524;12.052;2023-08-01T12:31:05;95718.16;;;30.69;41.98
58367;BME280;57745;42.524;12.052;2023-08-01T12:33:32;95697.97;;;30.70;41.52
58367;BME280;57745;42.524;12.052;2023-08-01T12:35:59;95713.22;;;30.77;42.06
58367;BME280;57745;42.524;12.052;2023-08-01T12:38:25;95719.75;;;30.62;42.36
58367;BME280;57745;42.524;12.052;2023-08-01T12:40:51;95698.09;;;30.63;42.16
58367;BME280;57745;42.524;12.052;2023-08-01T12:43:16;95696.19;;;30.65;42.14
58367;BME280;57745;42.524;12.052;2023-08-01T12:45:42;95693.13;;;30.71;42.25
58367;BME280;57745;42.524;12.052;2023-08-01T12:48:08;95681.88;;;30.61;42.02
58367;BME280;57745;42.524;12.052;2023-08-01T12:50:33;95677.19;;;30.64;42.19